Time;durP1;ratioP1;P1;durP2;ratioP2;P2;SDS_P1;SDS_P2;PMS_P1;PMS_P2;Temp;Humidity;BMP_temperature;BMP_pressure;BME280_temperature;BME280_humidity;BME280_pressure;Samples;Min_cycle;Max_cycle;Signal;HPM_P1;HPM_P2
2023/03/05 00:00:08;;;;;;;1999.90;999.90;;;3.50;99.90;;;;;;5076259;28;20128;-77
2023/03/05 00:02:34;;;;;;;1999.90;999.90;;;3.50;99.90;;;;;;5075873;28;20029;-77
2023/03/05 00:04:59;;;;;;;1999.90;999.90;;;3.50;99.90;;;;;;5075912;28;20033;-77
2023/03/05 00:07:25;;;;;;;1999.90;999.90;;;3.50;99.90;;;;;;5075708;28;20045;-77
2023/03/05 00:09:50;;;;;;;1999.90;999.90;;;3.50;99.90;;;;;;5076059;28;20037;-77
2023/03/05 00:12:16;;;;;;;1999.90;999.90;;;3.50;99.90;;;;;;5075854;28;20056;-77
2023/03/05 00:14:42;;;;;;;1999.90;999.90;;;3.50;99.90;;;;;;5075373;28;20502;-77
2023/03/05 00:17:07;;;;;;;1999.90;999.90;;;3.50;99.90;;;;;;5079527;28;20025;-77
2023/03/05 00:19:33;;;;;;;1999.90;999.90;;;3.50;99.90;;;;;;5079523;28;20122;-76
2023/03/05 00:21:58;;;;;;;1999.90;999.90;;;3.50;99.90;;;;;;5076220;28;20372;-77
2023/03/05 00:24:24;;;;;;;1999.90;999.90;;;3.50;99.90;;;;;;5074903;28;20048;-77
2023/03/05 00:26:49;;;;;;;1999.90;999.90;;;3.50;99.90;;;;;;5074169;28;20037;-77
2023/03/05 00:29:17;;;;;;;1999.90;999.90;;;3.50;99.90;;;;;;5075165;28;20392;-76
2023/03/05 00:31:44;;;;;;;1999.90;999.90;;;3.50;99.90;;;;;;5075640;28;20036;-76
2023/03/05 00:34:12;;;;;;;1999.90;999.90;;;3.50;99.90;;;;;;5075658;28;20457;-77
2023/03/05 00:36:40;;;;;;;1999.90;999.90;;;3.50;99.90;;;;;;5075134;28;20415;-77
2023/03/05 00:39:05;;;;;;;1999.90;999.90;;;3.50;99.90;;;;;;5073887;28;20124;-77
2023/03/05 00:41:31;;;;;;;1999.90;999.90;;;3.40;99.90;;;;;;5075638;28;20501;-77
2023/03/05 00:43:57;;;;;;;1999.90;999.90;;;3.40;99.90;;;;;;5075226;28;20538;-77
2023/03/05 00:46:23;;;;;;;1999.90;999.90;;;3.40;99.90;;;;;;5075651;28;20033;-77
2023/03/05 00:48:48;;;;;;;1999.90;999.90;;;3.40;99.90;;;;;;5075282;28;20037;-77
2023/03/05 00:51:14;;;;;;;1999.90;999.90;;;3.30;99.90;;;;;;5075448;28;20075;-77
2023/03/05 00:53:40;;;;;;;1999.90;999.90;;;3.30;99.90;;;;;;5074898;28;20502;-77
2023/03/05 00:56:06;;;;;;;1999.90;999.90;;;3.30;99.90;;;;;;5075072;28;20452;-76
2023/03/05 00:58:31;;;;;;;1999.90;999.90;;;3.30;99.90;;;;;;5073398;28;20033;-76
2023/03/05 01:00:58;;;;;;;1999.90;999.90;;;3.30;99.90;;;;;;5075172;28;20398;-76
2023/03/05 01:03:24;;;;;;;1999.90;999.90;;;3.30;99.90;;;;;;5075388;28;20029;-77
2023/03/05 01:05:50;;;;;;;1999.90;999.90;;;3.30;99.90;;;;;;5074897;28;20566;-77
2023/03/05 01:08:16;;;;;;;1999.90;999.90;;;3.30;99.90;;;;;;5074544;28;20033;-76
2023/03/05 01:10:42;;;;;;;1999.90;999.90;;;3.30;99.90;;;;;;5075161;28;20072;-77
2023/03/05 01:13:07;;;;;;;1999.90;999.90;;;3.30;99.90;;;;;;5074857;28;20062;-77
2023/03/05 01:15:33;;;;;;;1999.90;999.90;;;3.20;99.90;;;;;;5074883;28;20041;-77
2023/03/05 01:17:58;;;;;;;1999.90;999.90;;;3.30;99.90;;;;;;5074718;28;20033;-77
2023/03/05 01:20:24;;;;;;;1999.90;999.90;;;3.20;99.90;;;;;;5075179;28;20037;-77
2023/03/05 01:22:49;;;;;;;1999.90;999.90;;;3.20;99.90;;;;;;5074764;28;20067;-77
2023/03/05 01:25:16;;;;;;;1999.90;999.90;;;3.20;99.90;;;;;;5074687;28;20045;-76
2023/03/05 01:27:42;;;;;;;1999.90;999.90;;;3.30;99.90;;;;;;5074462;28;20144;-77
2023/03/05 01:30:09;;;;;;;1999.90;999.90;;;3.20;99.90;;;;;;5074612;28;20132;-76
2023/03/05 01:32:35;;;;;;;1999.90;999.90;;;3.30;99.90;;;;;;5074699;28;20064;-77
2023/03/05 01:35:03;;;;;;;1999.90;999.90;;;3.30;99.90;;;;;;5074380;28;20474;-76
2023/03/05 01:37:28;;;;;;;1999.90;999.90;;;3.20;99.90;;;;;;5072938;28;20037;-77
2023/03/05 01:39:54;;;;;;;1999.90;999.90;;;3.20;99.90;;;;;;5074652;28;20032;-76
2023/03/05 01:42:20;;;;;;;1999.90;999.90;;;3.20;99.90;;;;;;5074874;28;20033;-76
2023/03/05 01:45:17;;;;;;;1999.90;999.90;;;3.20;99.90;;;;;;5074534;28;20521;-77
2023/03/05 01:47:44;;;;;;;1999.90;999.90;;;3.10;99.90;;;;;;5072144;28;20052;-76
2023/03/05 01:50:13;;;;;;;1999.90;999.90;;;3.10;99.90;;;;;;5074463;28;20044;-76
2023/03/05 01:52:41;;;;;;;1999.90;999.90;;;3.10;99.90;;;;;;5074411;28;20031;-76
2023/03/05 01:55:12;;;;;;;1999.90;999.90;;;3.10;99.90;;;;;;5074033;28;20028;-76
2023/03/05 01:57:46;;;;;;;1999.90;999.90;;;3.20;99.90;;;;;;5074425;28;20033;-77
2023/03/05 02:00:45;;;;;;;1999.90;999.90;;;3.10;99.90;;;;;;5074574;28;20053;-77
2023/03/05 02:03:12;;;;;;;1999.90;999.90;;;3.20;99.90;;;;;;5073121;28;20040;-77
2023/03/05 02:05:42;;;;;;;1999.90;999.90;;;3.10;99.90;;;;;;5073692;28;20037;-76
2023/03/05 02:08:10;;;;;;;1999.90;999.90;;;3.20;99.90;;;;;;5072926;28;20037;-76
2023/03/05 02:10:37;;;;;;;1999.90;999.90;;;3.10;99.90;;;;;;5074113;28;20494;-76
2023/03/05 02:13:08;;;;;;;1999.90;999.90;;;3.10;99.90;;;;;;5074049;28;20132;-77
2023/03/05 02:15:34;;;;;;;1999.90;999.90;;;3.10;99.90;;;;;;5074037;28;20079;-77
2023/03/05 02:18:00;;;;;;;1999.90;999.90;;;3.10;99.90;;;;;;5074400;28;20111;-77
2023/03/05 02:20:29;;;;;;;1999.90;999.90;;;3.10;99.90;;;;;;5074858;28;20487;-77
2023/03/05 02:22:55;;;;;;;1999.90;999.90;;;3.10;99.90;;;;;;5074157;28;20109;-77
2023/03/05 02:25:26;;;;;;;1999.90;999.90;;;3.10;99.90;;;;;;5073717;28;20044;-77
2023/03/05 02:28:13;;;;;;;1999.90;999.90;;;3.10;99.90;;;;;;5075023;28;20044;-76
2023/03/05 02:30:39;;;;;;;1999.90;999.90;;;3.10;99.90;;;;;;5078679;28;20040;-76
2023/03/05 02:33:04;;;;;;;1999.90;999.90;;;3.10;99.90;;;;;;5074197;28;20036;-76
2023/03/05 02:35:30;;;;;;;1999.90;999.90;;;3.10;99.90;;;;;;5072286;28;20037;-76
2023/03/05 02:37:56;;;;;;;1999.90;999.90;;;3.10;99.90;;;;;;5073758;28;20064;-76
2023/03/05 02:40:22;;;;;;;1999.90;999.90;;;3.10;99.90;;;;;;5073794;28;20060;-76
2023/03/05 02:42:47;;;;;;;1999.90;999.90;;;3.10;99.90;;;;;;5072526;28;20075;-76
2023/03/05 02:45:13;;;;;;;1999.90;999.90;;;3.00;99.90;;;;;;5073720;28;20087;-76
2023/03/05 02:47:39;;;;;;;1999.90;999.90;;;3.10;99.90;;;;;;5073858;28;20037;-76
2023/03/05 02:50:05;;;;;;;1999.90;999.90;;;3.10;99.90;;;;;;5073627;28;20041;-76
2023/03/05 02:52:31;;;;;;;1999.90;999.90;;;3.00;99.90;;;;;;5072440;28;20033;-76
2023/03/05 02:54:57;;;;;;;1999.90;999.90;;;3.00;99.90;;;;;;5073636;28;20040;-76
2023/03/05 02:57:23;;;;;;;1999.90;999.90;;;3.00;99.90;;;;;;5073526;28;20071;-76
2023/03/05 02:59:49;;;;;;;1999.90;999.90;;;3.00;99.90;;;;;;5075014;28;20044;-76
2023/03/05 03:02:15;;;;;;;1999.90;999.90;;;3.00;99.90;;;;;;5077183;28;20036;-76
2023/03/05 03:04:42;;;;;;;1999.90;999.90;;;3.00;99.90;;;;;;5075468;28;20041;-76
2023/03/05 03:07:08;;;;;;;1999.90;999.90;;;3.00;99.90;;;;;;5077134;28;20760;-76
2023/03/05 03:09:34;;;;;;;1999.90;999.90;;;3.00;99.90;;;;;;5076830;28;20524;-76
2023/03/05 03:12:01;;;;;;;1999.90;999.90;;;3.00;99.90;;;;;;5076911;28;20025;-76
2023/03/05 03:14:30;;;;;;;1999.90;999.90;;;3.10;99.90;;;;;;5076683;28;20033;-76
2023/03/05 03:16:56;;;;;;;1999.90;999.90;;;3.10;99.90;;;;;;5075475;28;20059;-76
2023/03/05 03:19:22;;;;;;;1999.90;999.90;;;3.10;99.90;;;;;;5075093;28;20556;-76
2023/03/05 03:21:49;;;;;;;1999.90;999.90;;;3.10;99.90;;;;;;5077000;28;20039;-76
2023/03/05 03:24:14;;;;;;;1999.90;999.90;;;3.10;99.90;;;;;;5076617;28;20038;-76
2023/03/05 03:26:40;;;;;;;1999.90;999.90;;;3.10;99.90;;;;;;5076412;28;20037;-76
2023/03/05 03:29:05;;;;;;;1999.90;999.90;;;3.10;99.90;;;;;;5076333;28;20044;-77
2023/03/05 03:31:31;;;;;;;1999.90;999.90;;;3.10;99.90;;;;;;5076680;28;20033;-76
2023/03/05 03:33:57;;;;;;;1999.90;999.90;;;3.10;99.90;;;;;;5076117;28;20044;-76
2023/03/05 03:36:22;;;;;;;1999.90;999.90;;;3.10;99.90;;;;;;5076534;28;20060;-78
2023/03/05 03:38:48;;;;;;;1999.90;999.90;;;3.10;99.90;;;;;;5076567;28;20047;-77
2023/03/05 03:41:13;;;;;;;1999.90;999.90;;;3.10;99.90;;;;;;5076479;28;20029;-76
2023/03/05 03:43:39;;;;;;;1999.90;999.90;;;3.10;99.90;;;;;;5076478;28;20037;-77
2023/03/05 03:46:06;;;;;;;1999.90;999.90;;;3.10;99.90;;;;;;5075975;28;20049;-77
2023/03/05 03:48:31;;;;;;;1999.90;999.90;;;3.10;99.90;;;;;;5076134;28;20029;-76
2023/03/05 03:50:57;;;;;;;1999.90;999.90;;;3.10;99.90;;;;;;5075053;28;20087;-76
2023/03/05 03:53:22;;;;;;;1999.90;999.90;;;3.10;99.90;;;;;;5076241;28;20033;-77
2023/03/05 03:55:48;;;;;;;1999.90;999.90;;;3.10;99.90;;;;;;5075870;28;20048;-76
2023/03/05 03:58:14;;;;;;;1999.90;999.90;;;3.10;99.90;;;;;;5076370;28;20036;-76
2023/03/05 04:00:40;;;;;;;1999.90;999.90;;;3.10;99.90;;;;;;5076276;28;20032;-77
2023/03/05 04:03:06;;;;;;;1999.90;999.90;;;3.10;99.90;;;;;;5074863;28;20025;-77
2023/03/05 04:05:32;;;;;;;1999.90;999.90;;;3.10;99.90;;;;;;5075977;28;20048;-77
2023/03/05 04:07:58;;;;;;;1999.90;999.90;;;3.10;99.90;;;;;;5075873;28;20029;-76
2023/03/05 04:10:24;;;;;;;1999.90;999.90;;;3.10;99.90;;;;;;5075556;28;20032;-76
2023/03/05 04:12:50;;;;;;;1999.90;999.90;;;3.10;99.90;;;;;;5076258;28;20029;-77
2023/03/05 04:15:15;;;;;;;1999.90;999.90;;;3.10;99.90;;;;;;5075790;28;20510;-77
2023/03/05 04:17:41;;;;;;;1999.90;999.90;;;3.10;99.90;;;;;;5075739;28;20041;-76
2023/03/05 04:20:09;;;;;;;1999.90;999.90;;;3.10;99.90;;;;;;5075780;28;20044;-77
2023/03/05 04:22:35;;;;;;;1999.90;999.90;;;3.10;99.90;;;;;;5075649;28;20407;-76
2023/03/05 04:25:05;;;;;;;1999.90;999.90;;;3.00;99.90;;;;;;5075756;28;20132;-77
2023/03/05 04:27:31;;;;;;;1999.90;999.90;;;3.00;99.90;;;;;;5075572;28;20115;-77
2023/03/05 04:29:57;;;;;;;1999.90;999.90;;;3.00;99.90;;;;;;5082622;22;20148;-76
2023/03/05 04:32:24;;;;;;;1999.90;999.90;;;3.10;99.90;;;;;;5055532;28;20179;-76
2023/03/05 04:34:50;;;;;;;1999.90;999.90;;;3.10;99.90;;;;;;5055170;28;20025;-76
2023/03/05 04:37:16;;;;;;;1999.90;999.90;;;3.10;99.90;;;;;;5055481;28;20037;-76
2023/03/05 04:39:41;;;;;;;1999.90;999.90;;;3.10;99.90;;;;;;5054062;28;20021;-76
2023/03/05 04:42:07;;;;;;;1999.90;999.90;;;3.10;99.90;;;;;;5055465;28;20038;-76
2023/03/05 04:44:32;;;;;;;1999.90;999.90;;;3.00;99.90;;;;;;5055153;28;20507;-76
2023/03/05 04:46:58;;;;;;;1999.90;999.90;;;3.00;99.90;;;;;;5055172;28;20091;-76
2023/03/05 04:49:23;;;;;;;1999.90;999.90;;;3.00;99.90;;;;;;5053585;28;20057;-76
2023/03/05 04:51:49;;;;;;;1999.90;999.90;;;3.00;99.90;;;;;;5055495;28;20710;-76
2023/03/05 04:54:14;;;;;;;1999.90;999.90;;;3.00;99.90;;;;;;5053627;28;20450;-76
2023/03/05 04:56:40;;;;;;;1999.90;999.90;;;3.00;99.90;;;;;;5055038;28;20040;-76
2023/03/05 04:59:05;;;;;;;1999.90;999.90;;;3.00;99.90;;;;;;5055325;28;20036;-76
2023/03/05 05:01:31;;;;;;;1999.90;999.90;;;3.00;99.90;;;;;;5055379;28;20541;-76
2023/03/05 05:03:57;;;;;;;1999.90;999.90;;;3.00;99.90;;;;;;5055124;28;20164;-76
2023/03/05 05:06:22;;;;;;;1999.90;999.90;;;3.00;99.90;;;;;;5055322;28;20514;-76
2023/03/05 05:08:48;;;;;;;1999.90;999.90;;;3.00;99.90;;;;;;5055119;28;20034;-76
2023/03/05 05:11:14;;;;;;;1999.90;999.90;;;3.00;99.90;;;;;;5055329;28;20079;-76
2023/03/05 05:13:39;;;;;;;1999.90;999.90;;;3.00;99.90;;;;;;5055363;28;20372;-76
2023/03/05 05:16:06;;;;;;;1999.90;999.90;;;3.00;99.90;;;;;;5054421;28;20034;-76
2023/03/05 05:18:31;;;;;;;1999.90;999.90;;;3.00;99.90;;;;;;5054574;28;20037;-76
2023/03/05 05:20:57;;;;;;;1999.90;999.90;;;3.00;99.90;;;;;;5054976;28;20033;-76
2023/03/05 05:23:23;;;;;;;1999.90;999.90;;;3.00;99.90;;;;;;5054088;28;20196;-76
2023/03/05 05:26:03;;;;;;;1999.90;999.90;;;3.00;99.90;;;;;;5052857;28;20041;-75
2023/03/05 05:28:29;;;;;;;1999.90;999.90;;;3.00;99.90;;;;;;5053662;28;20033;-76
2023/03/05 05:30:55;;;;;;;1999.90;999.90;;;3.00;99.90;;;;;;5053295;28;20037;-76
2023/03/05 05:33:22;;;;;;;1999.90;999.90;;;2.90;99.90;;;;;;5054387;28;20491;-76
2023/03/05 05:35:47;;;;;;;1999.90;999.90;;;3.00;99.90;;;;;;5054459;28;20036;-76
2023/03/05 05:38:13;;;;;;;1999.90;999.90;;;3.00;99.90;;;;;;5054601;28;20084;-76
2023/03/05 05:40:39;;;;;;;1999.90;999.90;;;3.00;99.90;;;;;;5053225;28;20416;-76
2023/03/05 05:43:05;;;;;;;1999.90;999.90;;;3.00;99.90;;;;;;5053116;28;20056;-76
2023/03/05 05:45:31;;;;;;;1999.90;999.90;;;2.90;99.90;;;;;;5054091;28;20048;-76
2023/03/05 05:47:56;;;;;;;1999.90;999.90;;;2.90;99.90;;;;;;5054100;28;20052;-76
2023/03/05 05:50:22;;;;;;;1999.90;999.90;;;2.90;99.90;;;;;;5054549;28;20045;-76
2023/03/05 05:52:49;;;;;;;1999.90;999.90;;;3.00;99.90;;;;;;5054255;28;20543;-76
2023/03/05 05:55:15;;;;;;;1999.90;999.90;;;2.90;99.90;;;;;;5052687;28;20038;-76
2023/03/05 05:57:40;;;;;;;1999.90;999.90;;;3.00;99.90;;;;;;5054464;28;20033;-76
2023/03/05 06:00:10;;;;;;;1999.90;999.90;;;3.00;99.90;;;;;;5054269;28;20080;-76
2023/03/05 06:02:41;;;;;;;1999.90;999.90;;;3.00;99.90;;;;;;5052745;28;20037;-76
2023/03/05 06:05:09;;;;;;;1999.90;999.90;;;3.00;99.90;;;;;;5052616;28;20044;-76
2023/03/05 06:07:35;;;;;;;1999.90;999.90;;;3.00;99.90;;;;;;5052804;28;20040;-76
2023/03/05 06:10:02;;;;;;;1999.90;999.90;;;3.00;99.90;;;;;;5054068;28;20103;-76
2023/03/05 06:12:27;;;;;;;1999.90;999.90;;;3.00;99.90;;;;;;5054586;28;20064;-76
2023/03/05 06:14:53;;;;;;;1999.90;999.90;;;3.00;99.90;;;;;;5054415;28;20064;-76
2023/03/05 06:17:19;;;;;;;1999.90;999.90;;;3.00;99.90;;;;;;5053283;28;20042;-76
2023/03/05 06:19:44;;;;;;;1999.90;999.90;;;3.10;99.90;;;;;;5054485;28;20033;-76
2023/03/05 06:22:10;;;;;;;1999.90;999.90;;;3.10;99.90;;;;;;5053951;28;20461;-76
2023/03/05 06:24:37;;;;;;;1999.90;999.90;;;3.10;99.90;;;;;;5053417;28;20048;-76
2023/03/05 06:27:04;;;;;;;1999.90;999.90;;;3.10;99.90;;;;;;5052649;28;20084;-76
2023/03/05 06:29:30;;;;;;;1999.90;999.90;;;3.10;99.90;;;;;;5052178;28;20536;-76
2023/03/05 06:31:55;;;;;;;1999.90;999.90;;;3.20;99.90;;;;;;5054126;28;20037;-76
2023/03/05 06:34:21;;;;;;;1999.90;999.90;;;3.10;99.90;;;;;;5056015;28;20478;-76
2023/03/05 06:36:47;;;;;;;1999.90;999.90;;;3.20;99.90;;;;;;5056246;28;20420;-76
2023/03/05 06:39:12;;;;;;;1999.90;999.90;;;3.10;99.90;;;;;;5057932;28;20537;-76
2023/03/05 06:41:38;;;;;;;1999.90;999.90;;;3.20;99.90;;;;;;5057243;28;20033;-76
2023/03/05 06:44:04;;;;;;;1999.90;999.90;;;3.20;99.90;;;;;;5055366;28;20136;-76
2023/03/05 06:46:32;;;;;;;1999.90;999.90;;;3.20;99.90;;;;;;5057276;28;20025;-76
2023/03/05 06:49:00;;;;;;;1999.90;999.90;;;3.20;99.90;;;;;;5056542;28;20099;-76
2023/03/05 06:51:31;;;;;;;1999.90;999.90;;;3.30;99.90;;;;;;5057719;28;20038;-76
2023/03/05 06:54:00;;;;;;;1999.90;999.90;;;3.20;99.90;;;;;;5057660;28;20041;-76
2023/03/05 06:56:26;;;;;;;1999.90;999.90;;;3.20;99.90;;;;;;5057751;28;20037;-77
2023/03/05 06:58:52;;;;;;;1999.90;999.90;;;3.20;99.90;;;;;;5057019;28;20034;-76
2023/03/05 07:01:18;;;;;;;1999.90;999.90;;;3.30;99.90;;;;;;5057313;28;20034;-76
2023/03/05 07:03:47;;;;;;;1999.90;999.90;;;3.20;99.90;;;;;;5056705;28;20035;-76
2023/03/05 07:06:14;;;;;;;1999.90;999.90;;;3.20;99.90;;;;;;5056669;28;20033;-76
2023/03/05 07:08:40;;;;;;;1999.90;999.90;;;3.30;99.90;;;;;;5057162;28;20036;-76
2023/03/05 07:11:09;;;;;;;1999.90;999.90;;;3.30;99.90;;;;;;5057457;28;20041;-76
2023/03/05 07:13:35;;;;;;;1999.90;999.90;;;3.30;99.90;;;;;;5055280;28;20029;-76
2023/03/05 07:16:07;;;;;;;1999.90;999.90;;;3.30;99.90;;;;;;5056465;28;20091;-76
2023/03/05 07:18:33;;;;;;;1999.90;999.90;;;3.40;99.90;;;;;;5055142;28;20026;-76
2023/03/05 07:21:07;;;;;;;1999.90;999.90;;;3.40;99.90;;;;;;5055392;28;20044;-76
2023/03/05 07:23:33;;;;;;;1999.90;999.90;;;3.40;99.90;;;;;;5056518;28;20053;-75
2023/03/05 07:26:04;;;;;;;1999.90;999.90;;;3.40;99.90;;;;;;5054896;28;20537;-76
2023/03/05 07:28:30;;;;;;;1999.90;999.90;;;3.50;99.90;;;;;;5054366;28;20030;-76
2023/03/05 07:31:01;;;;;;;1999.90;999.90;;;3.50;99.90;;;;;;5056438;28;20511;-76
2023/03/05 07:33:27;;;;;;;1999.90;999.90;;;3.60;99.90;;;;;;5056301;28;20150;-76
2023/03/05 07:35:54;;;;;;;1999.90;999.90;;;3.70;99.90;;;;;;5056535;28;20037;-76
2023/03/05 07:38:20;;;;;;;1999.90;999.90;;;3.70;99.90;;;;;;5056211;28;20076;-75
2023/03/05 07:40:46;;;;;;;1999.90;999.90;;;3.70;99.90;;;;;;5056693;28;20045;-76
2023/03/05 07:43:11;;;;;;;1999.90;999.90;;;3.80;99.90;;;;;;5056507;28;20030;-76
2023/03/05 07:45:44;;;;;;;1999.90;999.90;;;3.80;99.90;;;;;;5054106;28;20068;-76
2023/03/05 07:48:15;;;;;;;1999.90;999.90;;;3.80;99.90;;;;;;5056258;28;20033;-76
2023/03/05 07:50:42;;;;;;;1999.90;999.90;;;3.80;99.90;;;;;;5056072;28;20160;-76
2023/03/05 07:53:07;;;;;;;1999.90;999.90;;;3.80;99.90;;;;;;5055986;28;20056;-76
2023/03/05 07:55:34;;;;;;;1999.90;999.90;;;3.80;99.90;;;;;;5054386;28;20479;-76
2023/03/05 07:57:59;;;;;;;1999.90;999.90;;;3.80;99.90;;;;;;5056043;28;20034;-75
2023/03/05 08:00:25;;;;;;;1999.90;999.90;;;3.80;99.90;;;;;;5056118;28;20042;-76
2023/03/05 08:02:50;;;;;;;1999.90;999.90;;;3.80;99.90;;;;;;5056205;28;20695;-76
2023/03/05 08:05:16;;;;;;;1999.90;999.90;;;3.80;99.90;;;;;;5055496;28;20037;-76
2023/03/05 08:07:41;;;;;;;1999.90;999.90;;;3.80;99.90;;;;;;5056118;28;20510;-77
2023/03/05 08:10:08;;;;;;;1999.90;999.90;;;3.80;99.90;;;;;;5054299;28;20118;-75
2023/03/05 08:12:33;;;;;;;1999.90;999.90;;;3.80;99.90;;;;;;5056025;28;20034;-75
2023/03/05 08:15:00;;;;;;;1999.90;999.90;;;3.80;99.90;;;;;;5055558;28;20025;-75
2023/03/05 08:17:25;;;;;;;1999.90;999.90;;;3.80;99.90;;;;;;5056243;28;20036;-75
2023/03/05 08:19:52;;;;;;;1999.90;999.90;;;3.90;99.90;;;;;;5055794;28;20112;-75
2023/03/05 08:22:19;;;;;;;1999.90;999.90;;;3.90;99.90;;;;;;5055965;28;20570;-76
2023/03/05 08:24:44;;;;;;;1999.90;999.90;;;4.00;99.90;;;;;;5055503;28;20037;-77
2023/03/05 08:27:10;;;;;;;1999.90;999.90;;;3.90;99.90;;;;;;5055772;28;20811;-76
2023/03/05 08:29:35;;;;;;;1999.90;999.90;;;3.90;99.90;;;;;;5055450;28;20092;-76
2023/03/05 08:32:01;;;;;;;1999.90;999.90;;;3.90;99.90;;;;;;5055923;28;20030;-77
2023/03/05 08:34:27;;;;;;;1999.90;999.90;;;3.90;99.90;;;;;;5054242;28;20048;-76
2023/03/05 08:36:52;;;;;;;1999.90;999.90;;;3.90;99.90;;;;;;5056160;28;20030;-76
2023/03/05 08:39:18;;;;;;;1999.90;999.90;;;4.00;99.90;;;;;;5055620;28;20083;-76
2023/03/05 08:41:43;;;;;;;1999.90;999.90;;;4.00;99.90;;;;;;5055767;28;20067;-76
2023/03/05 08:44:09;;;;;;;1999.90;999.90;;;3.90;99.90;;;;;;5055398;28;20065;-77
2023/03/05 08:46:35;;;;;;;1999.90;999.90;;;4.00;99.90;;;;;;5055606;28;20037;-77
2023/03/05 08:49:01;;;;;;;1999.90;999.90;;;3.90;99.90;;;;;;5055073;28;20034;-76
2023/03/05 08:51:27;;;;;;;1999.90;999.90;;;4.00;99.90;;;;;;5053909;28;20092;-76
2023/03/05 08:53:54;;;;;;;1999.90;999.90;;;4.00;99.90;;;;;;5055183;28;20100;-78
2023/03/05 08:56:20;;;;;;;1999.90;999.90;;;4.00;99.90;;;;;;5055049;28;20152;-76
2023/03/05 08:58:47;;;;;;;1999.90;999.90;;;4.00;99.90;;;;;;5055705;28;20511;-77
2023/03/05 09:01:13;;;;;;;1999.90;999.90;;;4.00;99.90;;;;;;5053610;28;20136;-76
2023/03/05 09:03:39;;;;;;;1999.90;999.90;;;4.00;99.90;;;;;;5054953;28;20516;-76
2023/03/05 09:06:07;;;;;;;1999.90;999.90;;;3.90;99.90;;;;;;5053430;28;20041;-76
2023/03/05 09:08:34;;;;;;;1999.90;999.90;;;3.90;99.90;;;;;;5054736;28;20035;-76
2023/03/05 09:11:05;;;;;;;1999.90;999.90;;;4.00;99.90;;;;;;5055135;28;20037;-76
2023/03/05 09:13:32;;;;;;;1999.90;999.90;;;4.00;99.90;;;;;;5053793;28;20029;-76
2023/03/05 09:16:00;;;;;;;1999.90;999.90;;;4.10;99.90;;;;;;5054917;28;20037;-76
2023/03/05 09:18:26;;;;;;;1999.90;999.90;;;4.10;99.90;;;;;;5054697;28;20034;-76
2023/03/05 09:20:52;;;;;;;1999.90;999.90;;;4.10;99.90;;;;;;5054839;28;20044;-76
2023/03/05 09:23:18;;;;;;;1999.90;999.90;;;4.20;99.90;;;;;;5053445;28;20028;-76
2023/03/05 09:25:44;;;;;;;1999.90;999.90;;;4.10;99.90;;;;;;5054555;28;20080;-77
2023/03/05 09:28:11;;;;;;;1999.90;999.90;;;4.20;99.90;;;;;;5054358;28;20128;-76
2023/03/05 09:30:37;;;;;;;1999.90;999.90;;;4.20;99.90;;;;;;5054888;28;20550;-76
2023/03/05 09:33:03;;;;;;;1999.90;999.90;;;4.30;99.90;;;;;;5054964;28;20032;-76
2023/03/05 09:35:28;;;;;;;1999.90;999.90;;;4.30;99.90;;;;;;5054636;28;20525;-76
2023/03/05 09:37:54;;;;;;;1999.90;999.90;;;4.40;99.90;;;;;;5054586;28;20033;-77
2023/03/05 09:40:21;;;;;;;1999.90;999.90;;;4.40;99.90;;;;;;5054737;28;20042;-77
2023/03/05 09:43:08;;;;;;;1999.90;999.90;;;4.40;99.90;;;;;;5054464;28;20399;-76
2023/03/05 09:45:43;;;;;;;1999.90;999.90;;;4.50;99.90;;;;;;5054452;28;20120;-76
2023/03/05 09:48:21;;;;;;;1999.90;999.90;;;4.70;99.90;;;;;;5053999;28;20495;-77
2023/03/05 09:51:00;;;;;;;1999.90;999.90;;;4.70;99.90;;;;;;5054516;28;20483;-77
2023/03/05 09:53:34;;;;;;;1999.90;999.90;;;4.80;99.90;;;;;;5054660;28;20048;-76
2023/03/05 09:56:24;;;;;;;1999.90;999.90;;;4.90;99.90;;;;;;5052838;28;20064;-76
2023/03/05 09:58:54;;;;;;;1999.90;999.90;;;5.00;99.90;;;;;;5052533;28;20038;-77
2023/03/05 10:01:23;;;;;;;1999.90;999.90;;;5.10;99.90;;;;;;5054590;28;20553;-77
2023/03/05 10:04:05;;;;;;;1999.90;999.90;;;5.20;99.90;;;;;;5054424;28;20030;-76
2023/03/05 10:06:51;;;;;;;1999.90;999.90;;;5.30;99.90;;;;;;5054417;28;20132;-77
2023/03/05 10:09:36;;;;;;;1999.90;999.90;;;5.50;99.90;;;;;;5057730;28;20090;-77
2023/03/05 10:12:13;;;;;;;1999.90;999.90;;;5.60;99.90;;;;;;5057700;28;20457;-76
2023/03/05 10:14:40;;;;;;;1999.90;999.90;;;5.60;99.90;;;;;;5057896;28;20033;-76
2023/03/05 10:17:42;;;;;;;1999.90;999.90;;;5.70;99.90;;;;;;5056740;28;20037;-76
2023/03/05 10:20:25;;;;;;;1999.90;999.90;;;5.60;99.90;;;;;;5057806;28;20065;-76
2023/03/05 10:23:12;;;;;;;1999.90;999.90;;;5.60;99.90;;;;;;5057979;28;20482;-76
2023/03/05 10:26:00;;;;;;;1999.90;999.90;;;5.50;99.90;;;;;;5055856;28;20080;-76
2023/03/05 10:28:47;;;;;;;1999.90;999.90;;;5.90;99.90;;;;;;5074405;22;20091;-77
2023/03/05 10:31:58;;;;;;;1999.90;999.90;;;6.10;99.90;;;;;;5055275;28;20100;-78
2023/03/05 10:34:43;;;;;;;1999.90;999.90;;;6.20;99.90;;;;;;5056307;28;20049;-78
2023/03/05 10:37:14;;;;;;;1999.90;999.90;;;6.10;99.90;;;;;;5056834;28;20441;-78
2023/03/05 10:40:05;;;;;;;1999.90;999.90;;;6.20;99.90;;;;;;5057931;28;20053;-78
2023/03/05 10:42:42;;;;;;;1999.90;999.90;;;6.50;99.90;;;;;;5057725;28;20462;-78
2023/03/05 10:45:30;;;;;;;1999.90;999.90;;;6.70;99.90;;;;;;5057573;28;20037;-78
2023/03/05 10:48:19;;;;;;;1999.90;999.90;;;6.80;99.90;;;;;;5056054;28;20049;-78
2023/03/05 10:50:52;;;;;;;1999.90;999.90;;;6.80;99.90;;;;;;5057862;28;20025;-78
2023/03/05 10:53:53;;;;;;;1999.90;999.90;;;6.70;99.90;;;;;;5058005;28;20044;-78
2023/03/05 10:56:21;;;;;;;1999.90;999.90;;;6.90;99.90;;;;;;5043246;28;20044;-78
2023/03/05 10:58:47;;;;;;;1999.90;999.90;;;7.00;99.90;;;;;;5057536;28;20025;-78
2023/03/05 11:01:14;;;;;;;1999.90;999.90;;;6.90;99.90;;;;;;5056350;28;20041;-78
2023/03/05 11:03:54;;;;;;;1999.90;999.90;;;7.10;99.90;;;;;;5056721;28;20041;-78
2023/03/05 11:06:37;;;;;;;1999.90;999.90;;;7.20;99.90;;;;;;5058309;28;20049;-78
2023/03/05 11:09:28;;;;;;;1999.90;999.90;;;7.30;99.90;;;;;;5057927;28;20030;-78
2023/03/05 11:12:18;;;;;;;1999.90;999.90;;;7.60;99.90;;;;;;5056839;28;20885;-78
2023/03/05 11:15:04;;;;;;;1999.90;999.90;;;7.80;99.90;;;;;;5054801;28;20077;-77
2023/03/05 11:17:37;;;;;;;1999.90;999.90;;;7.80;99.90;;;;;;5057969;28;20507;-78
2023/03/05 11:20:27;;;;;;;1999.90;999.90;;;7.70;99.90;;;;;;5056745;28;20030;-78
2023/03/05 11:23:16;;;;;;;1999.90;999.90;;;7.60;99.90;;;;;;5058476;28;20558;-78
2023/03/05 11:26:00;;;;;;;1999.90;999.90;;;7.50;99.90;;;;;;5056738;28;20045;-78
2023/03/05 11:28:29;;;;;;;1999.90;999.90;;;7.70;99.90;;;;;;5058692;28;20102;-78
2023/03/05 11:31:18;;;;;;;1999.90;999.90;;;7.80;99.90;;;;;;5059632;28;20552;-78
2023/03/05 11:34:19;;;;;;;1999.90;999.90;;;7.80;99.90;;;;;;5074928;28;20169;-78
2023/03/05 11:36:57;;;;;;;1999.90;999.90;;;7.60;99.90;;;;;;5058515;28;20037;-78
2023/03/05 11:39:24;;;;;;;1999.90;999.90;;;7.70;99.90;;;;;;5057733;28;20553;-78
2023/03/05 11:41:56;;;;;;;1999.90;999.90;;;7.60;99.90;;;;;;5059728;28;20040;-78
2023/03/05 11:44:54;;;;;;;1999.90;999.90;;;7.60;99.90;;;;;;5059301;28;20030;-78
2023/03/05 11:47:56;;;;;;;1999.90;999.90;;;7.30;99.90;;;;;;5063981;28;20030;-78
2023/03/05 11:50:28;;;;;;;1999.90;999.90;;;7.10;99.90;;;;;;5052090;28;20076;-78
2023/03/05 11:52:58;;;;;;;1999.90;999.90;;;6.90;99.90;;;;;;5057472;28;20028;-78
2023/03/05 11:55:47;;;;;;;1999.90;999.90;;;6.60;99.90;;;;;;5057105;28;20502;-78
2023/03/05 11:58:18;;;;;;;1999.90;999.90;;;6.50;99.90;;;;;;5056947;28;20388;-78
2023/03/05 12:00:45;;;;;;;1999.90;999.90;;;6.40;99.90;;;;;;5056565;28;20478;-78
2023/03/05 12:03:19;;;;;;;1999.90;999.90;;;6.30;99.90;;;;;;5057031;28;20116;-78
2023/03/05 12:05:49;;;;;;;1999.90;999.90;;;6.40;99.90;;;;;;5056765;28;20068;-78
2023/03/05 12:08:24;;;;;;;1999.90;999.90;;;6.40;99.90;;;;;;5056040;28;20413;-78
2023/03/05 12:10:50;;;;;;;1999.90;999.90;;;6.40;99.90;;;;;;5056533;28;20033;-78
2023/03/05 12:13:36;;;;;;;1999.90;999.90;;;6.50;99.90;;;;;;5057098;28;20033;-78
2023/03/05 12:16:32;;;;;;;1999.90;999.90;;;6.40;99.90;;;;;;5056487;28;20033;-78
2023/03/05 12:19:17;;;;;;;1999.90;999.90;;;6.60;99.90;;;;;;5055818;28;20450;-77